Time;durP1;ratioP1;P1;durP2;ratioP2;P2;SDS_P1;SDS_P2;PMS_P1;PMS_P2;Temp;Humidity;BMP_temperature;BMP_pressure;BME280_temperature;BME280_humidity;BME280_pressure;Samples;Min_cycle;Max_cycle;Signal;HPM_P1;HPM_P2
2023/05/30 00:01:57;;;;;;;6.87;3.85;;;;;;;24.38;47.16;101050.66;143724;657;46007;-76
2023/05/30 00:21:10;;;;;;;7.05;4.53;;;;;;;24.37;47.92;101061.94;143724;591;47010;-75
2023/05/30 00:23:38;;;;;;;6.45;4.65;;;;;;;24.34;47.79;101055.09;143721;627;47004;-76
2023/05/30 00:26:06;;;;;;;7.18;4.68;;;;;;;24.33;48.50;101049.88;143726;567;46006;-75
2023/05/30 00:28:32;;;;;;;8.98;4.60;;;;;;;24.33;48.65;101047.13;143723;593;47004;-76
2023/05/30 00:30:58;;;;;;;9.30;4.55;;;;;;;24.33;48.78;101049.88;143723;615;46944;-76
2023/05/30 00:33:25;;;;;;;7.50;5.00;;;;;;;24.34;49.22;101052.34;143726;596;47004;-76
2023/05/30 00:35:51;;;;;;;11.35;5.00;;;;;;;24.33;48.95;101050.72;143727;637;46020;-76
2023/05/30 00:38:17;;;;;;;12.13;5.03;;;;;;;24.32;49.60;101054.56;143724;570;47004;-76
2023/05/30 00:40:44;;;;;;;8.63;5.20;;;;;;;24.30;49.26;101059.50;143726;625;46010;-76
2023/05/30 00:43:10;;;;;;;8.85;4.53;;;;;;;24.31;48.89;101052.91;143727;585;46010;-76
2023/05/30 00:45:37;;;;;;;7.28;4.53;;;;;;;24.31;49.39;101060.31;143724;601;46008;-76
2023/05/30 00:48:05;;;;;;;10.32;4.68;;;;;;;24.30;49.09;101062.25;143723;597;47004;-76
2023/05/30 00:50:36;;;;;;;8.23;4.18;;;;;;;24.29;49.81;101055.13;143724;567;46010;-76
2023/05/30 00:53:04;;;;;;;7.40;4.18;;;;;;;24.27;49.76;101062.81;143720;573;47004;-76
2023/05/30 00:55:32;;;;;;;8.63;5.15;;;;;;;24.28;49.73;101066.38;143725;586;46002;-76
2023/05/30 00:57:58;;;;;;;10.75;4.70;;;;;;;24.27;49.10;101067.50;143725;579;47002;-76
2023/05/30 01:00:30;;;;;;;9.05;5.05;;;;;;;24.27;49.16;101067.50;143723;569;47010;-76
2023/05/30 01:02:59;;;;;;;8.38;5.00;;;;;;;24.28;48.79;101066.38;143725;601;46008;-76
2023/05/30 01:05:27;;;;;;;7.72;5.07;;;;;;;24.27;49.19;101071.06;143724;586;47006;-75
2023/05/30 01:07:53;;;;;;;9.23;4.72;;;;;;;24.26;49.24;101066.66;143727;621;46020;-76
2023/05/30 01:10:21;;;;;;;9.73;4.43;;;;;;;24.25;49.17;101065.03;143723;590;47010;-75
2023/05/30 01:13:21;;;;;;;7.40;4.22;;;;;;;24.25;49.38;101069.69;143725;599;46008;-75
2023/05/30 01:15:56;;;;;;;7.78;4.85;;;;;;;24.24;49.28;101068.88;143722;594;47000;-75
2023/05/30 01:18:53;;;;;;;9.95;5.00;;;;;;;24.22;49.32;101066.41;143729;574;46000;-75
2023/05/30 01:21:21;;;;;;;7.80;4.50;;;;;;;24.21;49.22;101077.66;143723;626;47010;-75
2023/05/30 01:24:19;;;;;;;7.57;4.75;;;;;;;24.18;49.19;101076.31;143725;569;46004;-76
2023/05/30 01:27:11;;;;;;;7.97;4.53;;;;;;;24.18;49.46;101065.31;143725;595;46014;-76
2023/05/30 01:29:41;;;;;;;6.43;4.43;;;;;;;24.19;49.71;101060.66;143723;671;47002;-75
2023/05/30 01:32:08;;;;;;;10.07;4.82;;;;;;;24.19;49.67;101055.16;143724;567;47010;-75
2023/05/30 01:34:34;;;;;;;6.85;4.37;;;;;;;24.19;49.31;101057.91;143726;604;46004;-76
2023/05/30 01:37:01;;;;;;;9.15;5.28;;;;;;;24.20;49.13;101056.81;143726;573;46922;-76
2023/05/30 01:39:27;;;;;;;8.18;4.90;;;;;;;24.18;49.32;101056.28;143725;594;47006;-76
2023/05/30 01:42:17;;;;;;;8.98;5.80;;;;;;;24.18;48.96;101059.84;143726;584;46008;-75
2023/05/30 01:45:15;;;;;;;5.07;4.45;;;;;;;24.19;49.20;101056.00;143722;658;47004;-76
2023/05/30 01:48:00;;;;;;;7.28;4.22;;;;;;;24.19;49.00;101060.66;143725;645;46014;-76
2023/05/30 01:50:33;;;;;;;9.25;4.95;;;;;;;24.19;49.35;101052.41;143725;575;47002;-76
2023/05/30 01:53:02;;;;;;;5.20;4.70;;;;;;;24.20;49.02;101057.63;143724;656;47010;-76
2023/05/30 01:55:31;;;;;;;8.75;4.85;;;;;;;24.18;48.74;101046.13;143723;584;47004;-76
2023/05/30 01:57:57;;;;;;;9.82;4.70;;;;;;;24.18;49.82;101059.03;143726;586;46006;-76
2023/05/30 02:00:25;;;;;;;6.80;5.20;;;;;;;24.18;49.58;101065.31;143725;573;47004;-75
2023/05/30 02:02:51;;;;;;;8.15;5.00;;;;;;;24.17;49.58;101068.38;143724;573;46924;-76
2023/05/30 02:05:18;;;;;;;8.20;4.87;;;;;;;24.15;49.56;101060.41;143724;622;46004;-75
2023/05/30 02:07:44;;;;;;;9.70;5.30;;;;;;;24.15;49.98;101056.84;143725;636;46007;-76
2023/05/30 02:10:12;;;;;;;7.85;5.03;;;;;;;24.15;49.38;101054.09;143728;578;47008;-75
2023/05/30 02:12:39;;;;;;;7.37;4.60;;;;;;;24.15;49.82;101065.88;143723;623;47017;-75
2023/05/30 02:15:06;;;;;;;8.20;4.72;;;;;;;24.11;50.25;101064.00;143724;567;47004;-76
2023/05/30 02:17:32;;;;;;;9.45;5.20;;;;;;;24.09;50.30;101069.78;143719;644;52016;-76
2023/05/30 02:19:59;;;;;;;9.48;5.07;;;;;;;24.07;50.52;101070.03;143724;572;47004;-75
2023/05/30 02:22:25;;;;;;;9.90;4.50;;;;;;;24.05;50.55;101065.94;143723;567;46933;-76
2023/05/30 02:24:52;;;;;;;5.93;4.45;;;;;;;24.05;50.77;101069.50;143725;603;47010;-76
2023/05/30 02:27:19;;;;;;;6.10;5.05;;;;;;;24.04;50.71;101070.59;143724;596;47929;-75
2023/05/30 02:29:45;;;;;;;7.85;5.32;;;;;;;24.03;50.80;101068.97;143726;586;47002;-76
2023/05/30 02:32:11;;;;;;;7.82;4.78;;;;;;;24.06;51.16;101070.34;143725;622;47006;-76
2023/05/30 02:34:38;;;;;;;7.90;4.60;;;;;;;24.06;50.92;101081.31;143724;653;47006;-76
2023/05/30 02:37:05;;;;;;;7.95;4.72;;;;;;;24.06;51.09;101079.38;143725;613;46009;-76
2023/05/30 02:39:32;;;;;;;9.05;5.87;;;;;;;24.06;50.81;101078.56;143726;637;47006;-76
2023/05/30 02:41:58;;;;;;;11.43;5.00;;;;;;;24.08;50.92;101092.84;143725;582;46012;-76
2023/05/30 02:44:25;;;;;;;8.45;4.62;;;;;;;24.07;51.15;101097.47;143721;591;47007;-77
2023/05/30 02:46:51;;;;;;;12.37;5.00;;;;;;;24.08;50.79;101087.34;143727;608;46008;-76
2023/05/30 02:49:18;;;;;;;9.55;4.93;;;;;;;24.08;50.78;101095.56;143725;575;47002;-76
2023/05/30 02:51:45;;;;;;;10.05;4.95;;;;;;;24.08;50.92;101090.09;143725;577;47010;-75
2023/05/30 02:54:11;;;;;;;8.88;5.32;;;;;;;24.06;51.18;101095.84;143719;590;48006;-76
2023/05/30 02:56:37;;;;;;;8.00;5.28;;;;;;;24.06;51.09;101106.00;143723;633;47004;-76
2023/05/30 02:59:04;;;;;;;10.77;5.30;;;;;;;24.05;51.66;101107.91;143725;595;47004;-76
2023/05/30 03:01:30;;;;;;;6.15;5.00;;;;;;;24.04;51.23;101100.78;143724;586;47010;-76
2023/05/30 03:03:56;;;;;;;8.85;4.90;;;;;;;24.05;51.18;101105.16;143722;571;47006;-75
2023/05/30 03:06:24;;;;;;;8.48;4.95;;;;;;;24.04;50.99;101108.22;143724;584;47008;-75
2023/05/30 03:08:59;;;;;;;10.63;5.78;;;;;;;24.04;50.99;101102.72;143726;615;46006;-76
2023/05/30 03:11:26;;;;;;;10.75;5.53;;;;;;;24.05;50.82;101107.09;143726;616;47010;-76
2023/05/30 03:13:52;;;;;;;11.77;5.25;;;;;;;24.05;50.64;101098.88;143723;728;47007;-76
2023/05/30 03:16:18;;;;;;;10.05;5.25;;;;;;;24.04;51.05;101100.78;143728;651;46008;-76
2023/05/30 03:18:45;;;;;;;12.18;5.60;;;;;;;24.05;51.53;101110.66;143725;614;47004;-76
2023/05/30 03:21:11;;;;;;;11.25;5.47;;;;;;;24.05;51.38;101110.66;143726;602;46932;-76
2023/05/30 03:23:38;;;;;;;16.00;5.65;;;;;;;24.03;51.48;101112.06;143722;585;47006;-76
2023/05/30 03:26:06;;;;;;;14.15;5.72;;;;;;;24.04;51.51;101110.94;143723;615;47008;-76
2023/05/30 03:28:32;;;;;;;13.45;6.18;;;;;;;24.05;50.74;101112.59;143725;585;47004;-76
2023/05/30 03:30:59;;;;;;;7.80;5.22;;;;;;;24.05;50.63;101107.91;143726;588;47010;-76
2023/05/30 03:33:28;;;;;;;7.07;4.68;;;;;;;24.06;50.21;101104.06;143725;580;46006;-76
2023/05/30 03:35:54;;;;;;;12.05;5.25;;;;;;;24.07;50.21;101111.19;143724;574;47008;-76
2023/05/30 03:38:23;;;;;;;5.97;4.95;;;;;;;24.09;50.63;101108.19;143725;589;47004;-74
2023/05/30 03:40:51;;;;;;;10.82;5.75;;;;;;;24.11;50.52;101107.91;143729;583;46006;-73
2023/05/30 03:43:21;;;;;;;7.03;4.90;;;;;;;24.13;50.70;101109.25;143726;609;46006;-77
2023/05/30 03:45:49;;;;;;;9.27;5.62;;;;;;;24.18;50.25;101108.44;143730;615;46008;-75
2023/05/30 03:48:18;;;;;;;8.10;5.03;;;;;;;24.24;49.97;101115.53;143725;618;47004;-75
2023/05/30 03:50:44;;;;;;;7.35;4.95;;;;;;;24.27;50.04;101114.16;143725;568;46025;-75
2023/05/30 03:53:10;;;;;;;7.53;4.93;;;;;;;24.26;49.75;101105.09;143725;601;46014;-74
2023/05/30 03:55:37;;;;;;;6.03;5.18;;;;;;;24.27;50.07;101108.66;143724;572;46008;-74
2023/05/30 03:58:03;;;;;;;11.85;5.15;;;;;;;24.27;49.99;101112.22;143723;601;47004;-75
2023/05/30 04:00:29;;;;;;;9.15;5.30;;;;;;;24.27;49.59;101114.16;143726;596;46010;-74
2023/05/30 04:02:59;;;;;;;6.22;5.10;;;;;;;24.25;49.78;101113.62;143724;615;47006;-75
2023/05/30 04:05:26;;;;;;;9.45;5.18;;;;;;;24.26;49.82;101118.81;143726;567;46008;-74
2023/05/30 04:07:52;;;;;;;13.25;6.15;;;;;;;24.28;49.15;101115.78;143727;594;46012;-76
2023/05/30 04:10:18;;;;;;;6.93;5.45;;;;;;;24.27;49.61;101119.66;143720;575;47010;-76
2023/05/30 04:12:44;;;;;;;8.57;5.40;;;;;;;24.28;50.08;101115.78;143725;633;46010;-76
2023/05/30 04:15:11;;;;;;;9.55;5.75;;;;;;;24.26;50.08;101115.25;143722;610;46009;-76
2023/05/30 04:17:37;;;;;;;11.80;6.00;;;;;;;24.23;49.90;101116.62;143716;651;47004;-76
2023/05/30 04:20:05;;;;;;;11.45;5.93;;;;;;;24.24;50.22;101114.72;143721;580;47012;-76
2023/05/30 04:22:32;;;;;;;15.23;6.72;;;;;;;24.23;51.00;101119.38;143720;627;47006;-76
2023/05/30 04:24:59;;;;;;;14.73;5.72;;;;;;;24.21;50.54;101124.31;143719;574;47008;-76
2023/05/30 04:27:26;;;;;;;11.85;5.40;;;;;;;24.20;51.00;101125.41;143724;569;47004;-75
2023/05/30 04:29:53;;;;;;;10.20;6.62;;;;;;;24.20;50.79;101128.16;143720;568;46026;-75
2023/05/30 04:32:19;;;;;;;8.70;5.85;;;;;;;24.19;51.12;101132.84;143724;580;47004;-76
2023/05/30 04:34:45;;;;;;;9.75;5.60;;;;;;;24.20;50.84;101139.13;143724;594;47004;-76
2023/05/30 04:37:12;;;;;;;10.25;5.70;;;;;;;24.20;50.70;101137.22;143725;623;47007;-76
2023/05/30 04:39:38;;;;;;;8.50;5.55;;;;;;;24.22;50.74;101143.25;143724;588;46010;-75
2023/05/30 04:42:05;;;;;;;7.12;5.68;;;;;;;24.24;50.01;101144.91;143716;566;47006;-77
2023/05/30 04:44:37;;;;;;;9.20;5.05;;;;;;;24.25;49.79;101141.06;143721;567;47929;-76
2023/05/30 04:47:10;;;;;;;9.50;4.90;;;;;;;24.25;49.44;101139.13;143723;598;47004;-76
2023/05/30 04:49:41;;;;;;;8.52;4.55;;;;;;;24.26;49.19;101150.94;143724;630;46012;-77
2023/05/30 04:52:08;;;;;;;10.30;3.85;;;;;;;24.28;48.96;101151.44;143720;605;47006;-76
2023/05/30 04:54:34;;;;;;;7.43;4.80;;;;;;;24.29;48.70;101155.84;143722;591;47008;-75
2023/05/30 04:57:02;;;;;;;13.38;4.68;;;;;;;24.29;49.19;101158.59;143724;602;47004;-76
2023/05/30 04:59:28;;;;;;;8.60;4.93;;;;;;;24.29;49.03;101159.44;143723;584;46012;-75
2023/05/30 05:01:54;;;;;;;8.25;5.45;;;;;;;24.31;49.52;101164.62;143720;573;47006;-76
2023/05/30 05:04:21;;;;;;;11.30;5.82;;;;;;;24.33;49.81;101166.00;143719;581;48020;-76
2023/05/30 05:06:47;;;;;;;9.73;4.75;;;;;;;24.34;49.81;101164.91;143717;575;47004;-76
2023/05/30 05:09:13;;;;;;;6.55;4.62;;;;;;;24.37;49.85;101172.56;143724;574;47012;-76
2023/05/30 05:11:40;;;;;;;12.27;4.93;;;;;;;24.36;49.82;101170.91;143724;635;47004;-76
2023/05/30 05:14:06;;;;;;;8.45;4.82;;;;;;;24.37;50.09;101169.81;143724;657;46009;-76
2023/05/30 05:16:32;;;;;;;9.82;6.85;;;;;;;24.38;49.96;101173.38;143726;616;47006;-76
2023/05/30 05:18:59;;;;;;;13.82;5.53;;;;;;;24.39;50.09;101177.78;143722;632;47010;-76
2023/05/30 05:21:25;;;;;;;12.35;5.95;;;;;;;24.40;49.90;101182.16;143723;612;48007;-76
2023/05/30 05:23:51;;;;;;;6.75;4.78;;;;;;;24.43;49.50;101195.34;143723;628;46929;-76
2023/05/30 05:26:17;;;;;;;9.25;5.35;;;;;;;24.46;49.46;101191.19;143725;604;46008;-77
2023/05/30 05:28:43;;;;;;;16.58;6.05;;;;;;;24.46;48.87;101185.72;143721;567;47010;-77
2023/05/30 05:31:10;;;;;;;9.00;5.00;;;;;;;24.47;48.86;101187.34;143718;628;47004;-77
2023/05/30 05:33:36;;;;;;;8.27;5.53;;;;;;;24.47;48.90;101185.41;143724;576;46008;-77
2023/05/30 05:36:02;;;;;;;8.13;5.30;;;;;;;24.48;48.63;101192.56;143724;593;47006;-77
2023/05/30 05:38:29;;;;;;;9.27;4.75;;;;;;;24.50;48.14;101192.28;143724;575;46932;-76
2023/05/30 05:40:56;;;;;;;8.15;4.85;;;;;;;24.51;48.56;101186.50;143722;582;47010;-77
2023/05/30 05:43:25;;;;;;;11.27;5.18;;;;;;;24.56;48.45;101204.88;143720;635;47008;-78
2023/05/30 05:45:55;;;;;;;11.90;5.57;;;;;;;24.60;48.58;101202.41;143721;569;47008;-78
2023/05/30 05:48:22;;;;;;;12.50;5.85;;;;;;;24.61;48.48;101204.84;143722;578;46012;-79
2023/05/30 05:50:48;;;;;;;12.55;5.87;;;;;;;24.64;48.59;101211.72;143721;589;47006;-79
2023/05/30 05:53:15;;;;;;;10.50;5.93;;;;;;;24.67;48.39;101214.72;143726;577;47004;-78
2023/05/30 05:55:44;;;;;;;9.50;6.43;;;;;;;24.72;48.59;101213.06;143717;623;46008;-78
2023/05/30 05:58:10;;;;;;;13.60;6.20;;;;;;;24.76;48.84;101219.66;143724;593;47012;-76
2023/05/30 06:00:37;;;;;;;9.32;5.80;;;;;;;24.78;48.22;101212.78;143724;586;47004;-73
2023/05/30 06:03:03;;;;;;;13.05;6.40;;;;;;;24.81;47.94;101216.87;143722;627;47008;-76
2023/05/30 06:05:30;;;;;;;11.73;6.45;;;;;;;24.85;48.07;101211.62;143725;574;47004;-75
2023/05/30 06:07:57;;;;;;;9.70;5.87;;;;;;;24.89;48.01;101223.72;143722;625;47010;-76
2023/05/30 06:10:27;;;;;;;8.18;4.78;;;;;;;24.91;47.35;101216.00;143721;661;47006;-74
2023/05/30 06:12:54;;;;;;;11.85;5.80;;;;;;;24.94;47.40;101218.19;143722;576;46928;-75
2023/05/30 06:15:20;;;;;;;9.90;5.45;;;;;;;24.98;47.68;101222.81;143726;644;47002;-74
2023/05/30 06:17:46;;;;;;;8.35;6.05;;;;;;;24.99;47.08;101215.41;143724;597;46032;-71
2023/05/30 06:20:13;;;;;;;18.23;10.35;;;;;;;25.03;46.97;101221.16;143720;685;46010;-72
2023/05/30 06:22:39;;;;;;;9.07;7.10;;;;;;;25.05;47.35;101216.22;143719;595;47008;-72
2023/05/30 06:25:06;;;;;;;11.45;6.00;;;;;;;25.08;47.80;101212.87;143723;577;47008;-73
2023/05/30 06:27:32;;;;;;;9.18;5.87;;;;;;;25.11;47.62;101210.37;143724;581;46012;-73
2023/05/30 06:29:58;;;;;;;12.88;7.97;;;;;;;25.16;47.33;101215.03;143723;589;47006;-71
2023/05/30 06:32:25;;;;;;;9.20;5.40;;;;;;;25.19;47.50;101211.72;143721;609;47008;-72
2023/05/30 06:34:51;;;;;;;14.05;10.75;;;;;;;25.23;47.10;101217.44;143726;598;46016;-74
2023/05/30 06:37:17;;;;;;;12.10;5.95;;;;;;;25.27;47.08;101215.78;143724;584;46010;-73
2023/05/30 06:39:44;;;;;;;6.43;4.95;;;;;;;25.31;47.12;101205.00;143720;581;47006;-73
2023/05/30 06:42:11;;;;;;;6.70;4.65;;;;;;;25.34;46.43;101216.25;143723;582;46009;-73
2023/05/30 06:44:38;;;;;;;9.52;5.78;;;;;;;25.33;46.66;101222.84;143718;658;47006;-75
2023/05/30 06:47:05;;;;;;;9.35;5.25;;;;;;;25.33;46.70;101222.84;143723;584;47010;-74
2023/05/30 06:49:31;;;;;;;7.55;5.45;;;;;;;25.40;46.53;101222.56;143722;597;47004;-73
2023/05/30 06:51:57;;;;;;;20.33;10.98;;;;;;;25.46;46.46;101228.88;143724;601;47002;-72
2023/05/30 06:54:24;;;;;;;9.32;5.15;;;;;;;25.47;45.76;101236.81;143725;601;46008;-76
2023/05/30 06:56:51;;;;;;;9.23;5.75;;;;;;;25.50;46.04;101235.44;143724;578;46012;-74
2023/05/30 06:59:17;;;;;;;9.32;5.05;;;;;;;25.55;46.46;101235.38;143724;575;47006;-75
2023/05/30 07:01:44;;;;;;;10.32;6.87;;;;;;;25.57;45.89;101225.75;143723;598;46023;-76
2023/05/30 07:04:10;;;;;;;10.25;4.70;;;;;;;25.56;45.62;101237.84;143726;594;47006;-75
2023/05/30 07:06:36;;;;;;;9.73;4.68;;;;;;;25.57;45.21;101234.00;143722;633;47013;-75
2023/05/30 07:09:03;;;;;;;8.43;4.87;;;;;;;25.62;45.96;101235.88;143715;576;47006;-74
2023/05/30 07:11:29;;;;;;;10.65;5.20;;;;;;;25.62;45.25;101230.37;143717;607;47008;-75
2023/05/30 07:13:55;;;;;;;9.93;5.57;;;;;;;25.67;45.39;101244.09;143727;569;47004;-74
2023/05/30 07:16:22;;;;;;;8.35;5.47;;;;;;;25.67;44.87;101235.84;143722;569;47010;-74
2023/05/30 07:18:48;;;;;;;10.02;4.72;;;;;;;25.68;45.47;101244.91;143724;630;47006;-75
2023/05/30 07:21:14;;;;;;;6.78;4.60;;;;;;;25.72;45.81;101243.22;143725;600;46009;-73
2023/05/30 07:23:41;;;;;;;6.60;4.05;;;;;;;25.68;45.76;101242.97;143723;629;47004;-76
2023/05/30 07:26:07;;;;;;;8.73;4.70;;;;;;;25.69;45.56;101250.09;143723;598;47010;-76
2023/05/30 07:28:33;;;;;;;7.80;4.12;;;;;;;25.75;45.39;101242.66;143724;588;47005;-76
2023/05/30 07:31:00;;;;;;;6.57;4.25;;;;;;;25.80;45.80;101242.59;143724;594;46008;-76
2023/05/30 07:33:26;;;;;;;8.50;4.40;;;;;;;25.85;45.65;101239.78;143719;578;47002;-76
2023/05/30 07:35:52;;;;;;;8.82;4.60;;;;;;;25.89;45.59;101245.53;143724;596;47013;-72
2023/05/30 07:38:19;;;;;;;8.52;5.03;;;;;;;25.94;45.33;101239.19;143725;572;47010;-69
2023/05/30 07:40:45;;;;;;;10.32;4.20;;;;;;;25.99;45.26;101250.97;143726;575;47002;-70
2023/05/30 07:43:11;;;;;;;9.13;4.95;;;;;;;25.97;44.99;101244.91;143727;583;47004;-68
2023/05/30 07:45:37;;;;;;;5.95;4.25;;;;;;;25.98;45.74;101243.81;143726;580;46933;-70
2023/05/30 07:48:05;;;;;;;6.62;4.10;;;;;;;26.00;45.36;101240.75;143723;630;46014;-67
2023/05/30 07:50:31;;;;;;;8.75;4.80;;;;;;;26.01;45.89;101242.41;143723;665;47008;-68
2023/05/30 07:52:58;;;;;;;4.78;4.18;;;;;;;25.97;44.82;101236.66;143726;647;46008;-69
2023/05/30 07:55:26;;;;;;;7.53;5.12;;;;;;;25.97;46.14;101235.81;143723;570;47012;-70
2023/05/30 07:57:52;;;;;;;7.05;4.87;;;;;;;25.95;46.29;101241.62;143719;580;47006;-69
2023/05/30 08:00:19;;;;;;;8.45;4.53;;;;;;;25.98;46.67;101242.97;143724;579;47008;-70
2023/05/30 08:02:45;;;;;;;8.38;5.43;;;;;;;26.00;46.99;101238.00;143725;597;47004;-69
2023/05/30 08:05:11;;;;;;;8.35;5.03;;;;;;;26.03;47.48;101246.50;143723;576;47012;-68
2023/05/30 08:07:38;;;;;;;9.38;4.78;;;;;;;26.07;47.69;101248.66;143725;681;47006;-67
2023/05/30 08:10:05;;;;;;;6.12;4.50;;;;;;;25.99;47.93;101242.69;143725;572;46008;-69
2023/05/30 08:12:31;;;;;;;4.72;4.22;;;;;;;26.12;48.08;101243.94;143723;594;47004;-67
2023/05/30 08:14:58;;;;;;;7.70;4.43;;;;;;;26.12;47.74;101237.63;143723;602;47012;-69
2023/05/30 08:17:25;;;;;;;7.18;4.80;;;;;;;26.25;47.09;101238.88;143726;568;46008;-68
2023/05/30 08:19:55;;;;;;;6.32;4.78;;;;;;;26.28;47.23;101243.81;143725;620;46007;-69
2023/05/30 08:22:24;;;;;;;6.00;4.05;;;;;;;26.37;46.38;101236.53;143717;591;47002;-69
2023/05/30 08:24:53;;;;;;;7.40;4.22;;;;;;;26.27;45.45;101234.72;143724;577;47004;-70
2023/05/30 08:27:20;;;;;;;7.05;4.10;;;;;;;26.29;46.22;101239.94;143724;590;47005;-70
2023/05/30 08:29:48;;;;;;;8.75;4.40;;;;;;;26.39;45.58;101239.81;143723;615;46006;-68
2023/05/30 08:32:15;;;;;;;8.25;4.07;;;;;;;26.38;45.85;101240.13;143726;588;47002;-68
2023/05/30 08:34:42;;;;;;;6.53;4.40;;;;;;;26.32;46.40;101236.59;143722;593;47008;-69
2023/05/30 08:37:08;;;;;;;11.05;4.30;;;;;;;26.30;46.16;101236.06;143726;624;46025;-70
2023/05/30 08:39:35;;;;;;;5.10;4.07;;;;;;;26.39;46.04;101233.47;143725;566;46023;-67
2023/05/30 08:42:01;;;;;;;6.68;4.68;;;;;;;26.44;45.70;101238.94;143726;590;47002;-67
2023/05/30 08:44:29;;;;;;;8.32;4.25;;;;;;;26.36;45.47;101234.09;143723;569;46010;-66
2023/05/30 08:46:57;;;;;;;10.38;3.97;;;;;;;26.33;45.70;101230.81;143717;569;47006;-67
2023/05/30 08:49:24;;;;;;;7.75;4.55;;;;;;;26.41;46.15;101236.75;143724;592;46009;-68
2023/05/30 08:51:53;;;;;;;7.78;4.37;;;;;;;26.32;45.59;101237.41;143724;596;47006;-67
2023/05/30 08:54:25;;;;;;;5.93;4.30;;;;;;;26.38;46.50;101237.37;143722;656;47015;-68
2023/05/30 08:57:04;;;;;;;8.73;4.82;;;;;;;26.44;46.79;101241.69;143725;580;47006;-69
2023/05/30 08:59:31;;;;;;;6.90;4.70;;;;;;;26.41;47.92;101243.09;143724;591;46008;-69
2023/05/30 09:01:58;;;;;;;6.20;4.57;;;;;;;26.32;47.45;101242.94;143728;596;46017;-67
2023/05/30 09:04:25;;;;;;;9.02;4.65;;;;;;;26.25;47.88;101247.94;143721;587;47011;-72
2023/05/30 09:06:54;;;;;;;8.48;4.37;;;;;;;26.38;47.62;101243.69;143724;667;47006;-72
2023/05/30 09:09:23;;;;;;;6.93;4.22;;;;;;;26.42;46.89;101242.00;143725;594;46024;-74
2023/05/30 09:11:52;;;;;;;8.13;4.78;;;;;;;26.42;47.35;101241.16;143721;593;46008;-76
2023/05/30 09:14:18;;;;;;;5.22;4.07;;;;;;;26.38;45.94;101237.37;143725;658;46031;-74
2023/05/30 09:16:44;;;;;;;7.97;4.30;;;;;;;26.38;45.74;101240.13;143727;567;46018;-74
2023/05/30 09:19:11;;;;;;;6.03;3.85;;;;;;;26.42;45.65;101233.72;143726;568;46009;-74
2023/05/30 09:21:38;;;;;;;5.30;4.00;;;;;;;26.52;45.79;101230.03;143726;677;47006;-75
2023/05/30 09:24:05;;;;;;;5.80;3.95;;;;;;;26.60;46.04;101229.34;143725;581;46012;-75
2023/05/30 09:26:35;;;;;;;4.15;3.65;;;;;;;26.53;45.39;101222.56;143724;623;47005;-74
2023/05/30 09:29:11;;;;;;;5.65;3.80;;;;;;;26.65;45.85;101223.00;143724;633;47002;-74
2023/05/30 09:31:38;;;;;;;6.30;3.50;;;;;;;26.74;45.18;101221.19;143727;569;47006;-74
2023/05/30 09:34:08;;;;;;;5.53;3.40;;;;;;;26.86;45.33;101215.28;143727;592;46010;-73
2023/05/30 09:36:35;;;;;;;5.55;3.95;;;;;;;27.00;45.23;101212.63;143718;581;47006;-72
2023/05/30 09:39:05;;;;;;;6.53;3.45;;;;;;;27.07;44.34;101215.78;143725;628;46008;-75
2023/05/30 09:41:32;;;;;;;8.90;3.97;;;;;;;26.99;45.07;101216.50;143725;720;47004;-75
2023/05/30 09:44:03;;;;;;;7.95;4.47;;;;;;;26.94;45.42;101217.34;143726;586;46010;-74
2023/05/30 09:46:30;;;;;;;4.70;3.58;;;;;;;27.09;44.90;101213.56;143723;719;48006;-74
2023/05/30 09:48:57;;;;;;;6.32;3.25;;;;;;;27.23;43.86;101210.88;143723;641;46009;-72
2023/05/30 09:51:29;;;;;;;7.03;3.40;;;;;;;27.34;44.00;101213.47;143726;597;47004;-74
2023/05/30 09:54:03;;;;;;;4.93;3.33;;;;;;;27.37;43.87;101212.87;143725;597;46028;-74
2023/05/30 09:56:29;;;;;;;;;;;;;;;27.35;43.77;101209.59;143727;978;47015;-74
2023/05/30 09:59:02;;;;;;;3.55;2.90;;;;;;;27.34;43.41;101218.97;143730;575;46010;-73
2023/05/30 10:01:44;;;;;;;4.12;3.10;;;;;;;27.28;43.30;101215.50;143718;584;47006;-75
2023/05/30 10:04:24;;;;;;;3.70;2.75;;;;;;;27.17;43.23;101217.59;143725;615;46012;-75
2023/05/30 10:06:52;;;;;;;4.22;2.60;;;;;;;27.12;43.48;101203.88;143725;568;47006;-73
2023/05/30 10:09:23;;;;;;;3.90;2.60;;;;;;;27.13;43.68;101204.69;143724;687;46929;-76
2023/05/30 10:11:51;;;;;;;4.90;3.08;;;;;;;27.27;43.36;101204.78;143725;573;47002;-73
2023/05/30 10:14:17;;;;;;;4.55;2.90;;;;;;;27.28;42.44;101200.88;143723;573;46024;-74
2023/05/30 10:16:57;;;;;;;4.32;2.33;;;;;;;27.36;42.58;101200.19;143726;572;47006;-74
2023/05/30 10:19:35;;;;;;;3.17;2.35;;;;;;;27.28;41.49;101198.09;143722;734;46009;-74
2023/05/30 10:22:06;;;;;;;4.75;2.95;;;;;;;27.28;41.93;101196.19;143726;572;47006;-75
2023/05/30 10:24:33;;;;;;;3.30;2.92;;;;;;;27.41;42.93;101191.84;143724;684;47012;-74
2023/05/30 10:27:03;;;;;;;4.68;2.97;;;;;;;27.53;42.49;101191.41;143721;567;46011;-73
2023/05/30 10:29:45;;;;;;;5.57;2.70;;;;;;;27.42;41.79;101187.13;143726;627;46008;-74
2023/05/30 10:32:17;;;;;;;5.30;2.92;;;;;;;27.38;41.79;101179.44;143719;606;49002;-71
2023/05/30 10:34:54;;;;;;;4.65;2.60;;;;;;;27.34;42.18;101196.91;143724;616;47013;-73
2023/05/30 10:37:21;;;;;;;3.87;3.05;;;;;;;27.32;42.85;101210.19;143725;599;47006;-75
2023/05/30 10:40:25;;;;;;;5.45;3.62;;;;;;;27.18;42.38;101193.59;143725;664;46008;-75
2023/05/30 10:43:33;;;;;;;4.43;3.40;;;;;;;27.04;42.83;101197.09;143726;586;47006;-80
2023/05/30 10:46:31;;;;;;;4.97;3.10;;;;;;;27.01;43.52;101194.13;143723;667;47012;-78
2023/05/30 10:49:06;;;;;;;4.55;3.00;;;;;;;26.94;42.95;101184.28;143723;578;47005;-78
2023/05/30 10:52:02;;;;;;;5.78;2.95;;;;;;;27.12;42.18;101175.50;143726;645;46008;-81
2023/05/30 10:54:33;;;;;;;5.65;3.22;;;;;;;27.21;42.53;101169.00;143722;607;46012;-78
2023/05/30 10:57:01;;;;;;;4.15;2.95;;;;;;;27.20;43.30;101164.59;143725;645;47013;-77
2023/05/30 10:59:27;;;;;;;4.32;3.10;;;;;;;27.13;42.52;101171.63;143726;730;47006;-78
2023/05/30 11:02:05;;;;;;;6.40;3.45;;;;;;;27.20;43.33;101166.53;143724;668;46008;-78
2023/05/30 11:04:38;;;;;;;5.78;2.97;;;;;;;27.11;42.56;101166.38;143722;679;47004;-80
2023/05/30 11:07:06;;;;;;;3.92;3.00;;;;;;;27.13;42.67;101155.87;143724;660;47010;-82
2023/05/30 11:09:33;;;;;;;5.03;3.37;;;;;;;27.09;42.22;101139.13;143723;569;47006;-76
2023/05/30 11:12:00;;;;;;;4.68;3.40;;;;;;;27.15;42.91;101153.62;143724;612;46009;-76
2023/05/30 11:14:32;;;;;;;4.62;3.47;;;;;;;27.13;42.94;101142.09;143727;609;46012;-77
2023/05/30 11:17:07;;;;;;;4.10;3.67;;;;;;;27.09;43.26;101147.41;143726;734;46010;-75
2023/05/30 11:19:42;;;;;;;5.87;3.45;;;;;;;27.07;43.41;101149.63;143717;731;47004;-78
2023/05/30 11:22:16;;;;;;;6.80;2.92;;;;;;;26.90;44.20;101146.59;143724;567;47008;-74
2023/05/30 11:24:43;;;;;;;4.80;4.12;;;;;;;26.97;44.41;101155.31;143726;712;47006;-76
2023/05/30 11:27:18;;;;;;;4.57;3.97;;;;;;;27.05;46.08;101148.31;143721;649;47012;-76
2023/05/30 11:29:55;;;;;;;4.20;3.22;;;;;;;27.02;46.44;101152.47;143726;601;46019;-74
2023/05/30 11:32:24;;;;;;;6.12;3.80;;;;;;;27.04;46.88;101147.47;143726;579;46008;-75
2023/05/30 11:35:01;;;;;;;5.15;3.87;;;;;;;26.91;46.74;101153.75;143725;578;47004;-75
2023/05/30 11:37:35;;;;;;;6.10;4.00;;;;;;;26.96;47.15;101153.69;143723;569;47012;-75
2023/05/30 11:40:05;;;;;;;5.22;3.53;;;;;;;27.03;47.76;101147.78;143725;586;47006;-75
2023/05/30 11:42:32;;;;;;;5.80;4.28;;;;;;;26.82;46.40;101141.78;143725;568;46018;-75
2023/05/30 11:44:58;;;;;;;4.00;3.60;;;;;;;26.79;45.49;101129.38;143719;686;47004;-76
2023/05/30 11:47:25;;;;;;;6.37;3.75;;;;;;;26.77;45.12;101121.41;143725;594;47012;-76
2023/05/30 11:49:57;;;;;;;4.97;3.45;;;;;;;26.80;44.76;101128.28;143723;702;47006;-78